Flight Track Log - Related Links

Times and Time Zones

All times are in EDT time to prevent confusion due to time zone crossing. See the LXJ549 flight status page for this flight to view local times or setup timezone preferences in your user account.

Time Position Orientation Groundspeed Altitude Reporting Facility
EDT Latitude Longitude Course Direction KTS MPH feet Rate Location/Type
Fri 08:23:58 AM 44.8703 -93.1544 83° East 197 227 3,700  Level Minneapolis Center
Fri 08:24:59 AM 44.8583 -93.0492 99° East 274 315 7,400 4,116 Climbing Minneapolis Center
Fri 08:25:59 AM 44.9081 -92.9553 53° Northeast 299 344 12,000 3,769 Climbing Minneapolis Center
Fri 08:27:00 AM 44.9664 -92.8597 49° Northeast 325 374 15,000 2,852 Climbing Minneapolis Center
Fri 08:28:01 AM 45.0339 -92.7464 50° Northeast 376 433 17,800 3,098 Climbing Minneapolis Center
Fri 08:29:00 AM 44.9495 -92.3711 83° East  Level Estimated
Fri 08:29:02 AM 45.1019 -92.6331 50° Northeast 379 436 21,300  Level Minneapolis Center
Fri 08:30:02 AM 45.1706 -92.5164 50° Northeast 387 445 24,300 2,678 Climbing Minneapolis Center
Fri 08:31:03 AM 45.2397 -92.3975 50° Northeast 392 451 26,700 2,066 Climbing Minneapolis Center
Fri 08:32:04 AM 45.2781 -92.2431 71° East 419 482 28,500 1,820 Climbing Minneapolis Center
Fri 08:33:05 AM 45.3100 -92.0808 74° East 429 494 30,400 1,983 Climbing Minneapolis Center
Fri 08:34:05 AM 45.3456 -91.9150 73° East 438 504 32,500 2,083 Climbing Minneapolis Center
Fri 08:35:06 AM 45.3783 -91.7483 74° East 439 505 34,600 1,770 Climbing Minneapolis Center
Fri 08:36:07 AM 45.4092 -91.5811 75° East 440 506 36,100 1,623 Climbing Minneapolis Center
Fri 08:37:08 AM 45.4481 -91.3814 74° East 440 506 37,900 1,525 Climbing Minneapolis Center
Fri 08:38:09 AM 45.4808 -91.2100 75° East 439 505 39,200 1,131 Climbing Minneapolis Center
Fri 08:39:10 AM 45.5133 -91.0425 74° East 439 505 40,200 984 Climbing Minneapolis Center
Fri 08:40:11 AM 45.5450 -90.8750 75° East 439 505 41,200 934 Climbing Minneapolis Center
Fri 08:41:12 AM 45.5761 -90.7103 75° East 435 501 42,100 694 Climbing Minneapolis Center
Fri 08:42:12 AM 45.6075 -90.5422 75° East 438 504 42,600 496 Climbing Minneapolis Center
Fri 08:43:13 AM 45.6397 -90.3719 75° East 444 511 43,100 492 Climbing Minneapolis Center
Fri 08:44:14 AM 45.6703 -90.2011 76° East 447 514 43,600 492 Climbing Minneapolis Center
Fri 08:45:15 AM 45.7017 -90.0294 75° East 449 517 44,100 492 Climbing Minneapolis Center
Fri 08:46:16 AM 45.7322 -89.8578 76° East 448 516 44,600 446 Climbing Minneapolis Center
Fri 08:47:16 AM 45.7625 -89.6861 76° East 446 513 45,000 198 Climbing Minneapolis Center
Fri 08:48:17 AM 45.7942 -89.5108 75° East 450 518 45,000  Level Minneapolis Center
Fri 08:49:18 AM 45.8247 -89.3358 76° East 451 519 45,000  Level Minneapolis Center
Fri 08:50:19 AM 45.8503 -89.1847 76° East 460 529 45,000  Level Minneapolis Center
Fri 08:51:20 AM 45.8900 -88.9511 76° East 467 537 45,000  Level Minneapolis Center
Fri 08:52:21 AM 45.9208 -88.7650 77° East 473 544 45,000  Level Minneapolis Center
Fri 08:53:22 AM 45.9517 -88.5836 76° East 471 542 45,000  Level Minneapolis Center
Fri 08:54:22 AM 45.9817 -88.4036 76° East 468 539 45,000  Level Minneapolis Center
Fri 08:55:35 AM 46.0175 -88.1856 77° East 468 539 45,000  Level Minneapolis Center
Fri 08:56:36 AM 46.0381 -88.0050 81° East 460 529 45,000  Level Minneapolis Center
Fri 08:57:37 AM 46.0386 -87.8219 90° East 459 528 45,000  Level Minneapolis Center
Fri 08:58:50 AM 46.0436 -87.6347 88° East 464 534 45,000  Level Minneapolis Center
Fri 08:59:54 AM 46.0469 -87.4108 89° East 466 536 45,000  Level Minneapolis Center
Fri 09:00:55 AM 46.0508 -87.1878 88° East 464 534 45,000  Level Minneapolis Center
Fri 09:02:08 AM 46.0533 -86.9608 89° East 470 541 45,000  Level Minneapolis Center
Fri 09:03:09 AM 46.0553 -86.7725 89° East 471 542 45,000  Level Minneapolis Center
Fri 09:04:10 AM 46.0575 -86.5858 89° East 467 537 45,000 -49 Level Minneapolis Center
Fri 09:05:11 AM 46.0583 -86.4350 89° East 470 541 44,900  Descending Minneapolis Center
Fri 09:06:12 AM 46.0472 -86.2117 94° East 466 536 45,000 49 Climbing Minneapolis Center
Fri 09:07:13 AM 46.0378 -86.0250 94° East 468 539 45,000  Level Minneapolis Center
Fri 09:08:14 AM 46.0272 -85.8381 95° East 469 540 45,000  Level Minneapolis Center
Fri 09:09:15 AM 46.0178 -85.6475 94° East 475 547 45,000  Level Minneapolis Center
Fri 09:10:16 AM 46.0064 -85.4597 95° East 473 544 45,000  Level Minneapolis Center
Fri 09:11:17 AM 45.9956 -85.2706 95° East 474 545 45,000  Level Minneapolis Center
Fri 09:12:18 AM 45.9844 -85.0794 95° East 478 550 45,000  Level Minneapolis Center
Fri 09:13:19 AM 45.9733 -84.8897 95° East 478 550 45,000  Level Minneapolis Center
Fri 09:14:20 AM 45.9614 -84.6964 95° East 481 554 45,000  Level Minneapolis Center
Fri 09:15:22 AM 45.9469 -84.4661 95° East 483 556 45,000  Level Minneapolis Center
Fri 09:16:23 AM 45.9342 -84.2736 95° East 483 556 45,000  Level Minneapolis Center
Fri 09:17:40 AM 45.9000 -84.0167 101° East 490 564 45,000  Level Toronto Center
Fri 09:18:40 AM 45.8833 -83.8167 97° East 490 564 45,000  Level Toronto Center
Fri 09:19:40 AM 45.8833 -83.6333 90° East 490 564 45,000  Level Toronto Center
Fri 09:20:40 AM 45.8667 -83.4333 97° East 490 564 45,000  Level Toronto Center
Fri 09:21:40 AM 45.8500 -83.2500 97° East 490 564 45,000  Level Toronto Center
Fri 09:22:40 AM 45.8333 -83.0500 97° East 490 564 45,000  Level Toronto Center
Fri 09:23:40 AM 45.8167 -82.8667 97° East 490 564 45,000  Level Toronto Center
Fri 09:24:40 AM 45.8167 -82.6667 90° East 490 564 45,000  Level Toronto Center
Fri 09:25:40 AM 45.7833 -82.4833 105° East 490 564 45,000  Level Toronto Center
Fri 09:26:40 AM 45.7667 -82.2833 97° East 490 564 45,000  Level Toronto Center
Fri 09:27:40 AM 45.7500 -82.0667 96° East 490 564 45,000  Level Toronto Center
Fri 09:28:40 AM 45.7500 -81.9000 90° East 490 564 45,000  Level Toronto Center
Fri 09:29:40 AM 45.7167 -81.7167 105° East 490 564 45,000  Level Toronto Center
Fri 09:30:40 AM 45.7000 -81.5167 97° East 490 564 45,000  Level Toronto Center
Fri 09:31:40 AM 45.6833 -81.3333 97° East 480 552 45,000  Level Toronto Center
Fri 09:32:40 AM 45.6667 -81.1333 97° East 480 552 45,000  Level Toronto Center
Fri 09:33:40 AM 45.6333 -80.9500 105° East 480 552 45,000  Level Toronto Center
Fri 09:34:40 AM 45.6333 -80.7500 90° East 480 552 45,000  Level Toronto Center
Fri 09:35:40 AM 45.6167 -80.5667 97° East 480 552 45,000  Level Toronto Center
Fri 09:36:40 AM 45.6000 -80.3667 97° East 480 552 45,000  Level Toronto Center
Fri 09:37:40 AM 45.5667 -80.1833 104° East 470 541 45,000  Level Toronto Center
Fri 09:38:40 AM 45.5500 -80.0167 98° East 470 541 45,000  Level Toronto Center
Fri 09:39:40 AM 45.5333 -79.8167 97° East 470 541 45,000  Level Toronto Center
Fri 09:40:40 AM 45.5167 -79.6333 97° East 470 541 45,000  Level Toronto Center
Fri 09:41:40 AM 45.5000 -79.4500 97° East 470 541 45,000  Level Toronto Center
Fri 09:42:40 AM 45.4833 -79.2833 98° East 470 541 45,000  Level Toronto Center
Fri 09:43:40 AM 45.4500 -79.0833 103° East 470 541 45,000  Level Toronto Center
Fri 09:44:40 AM 45.4333 -78.9000 97° East 470 541 45,000  Level Toronto Center
Fri 09:45:40 AM 45.4167 -78.7333 98° East 470 541 45,000  Level Toronto Center
Fri 09:46:40 AM 45.4000 -78.5333 97° East 470 541 45,000  Level Toronto Center
Fri 09:47:40 AM 45.3667 -78.3500 104° East 470 541 45,000  Level Toronto Center
Fri 09:48:40 AM 45.3333 -78.1667 104° East 460 529 45,000  Level Toronto Center
Fri 09:49:40 AM 45.3167 -78.0000 98° East 470 541 45,000  Level Toronto Center
Fri 09:50:40 AM 45.3000 -77.8000 97° East 460 529 45,000  Level Toronto Center
Fri 09:51:40 AM 45.2833 -77.6167 97° East 470 541 45,000  Level Toronto Center
Fri 09:52:40 AM 45.2667 -77.4500 98° East 470 541 45,000  Level Toronto Center
Fri 09:53:10 AM 45.2500 -77.3667 106° East 460 529 45,000  Level Montreal Center
Fri 09:54:10 AM 45.2167 -77.2000 106° East 460 529 45,000  Level Montreal Center
Fri 09:54:40 AM 45.2000 -77.0833 101° East 470 541 45,000  Level Toronto Center
Fri 09:55:40 AM 45.1833 -76.9167 98° East 470 541 45,000  Level Toronto Center
Fri 09:56:40 AM 45.1667 -76.7167 97° East 470 541 45,000  Level Toronto Center
Fri 09:57:40 AM 45.1333 -76.5333 104° East 470 541 45,000  Level Toronto Center
Fri 09:58:40 AM 45.1000 -76.3500 104° East 470 541 45,000  Level Toronto Center
Fri 09:59:10 AM 45.0833 -76.3000 115° Southeast 470 541 45,000  Level Montreal Center
Fri 10:00:10 AM 45.0667 -76.1167 97° East 470 541 45,000  Level Montreal Center
Fri 10:01:10 AM 45.0333 -75.9167 103° East 480 552 45,000  Level Montreal Center
Fri 10:02:10 AM 45.0167 -75.7500 98° East 480 552 45,000  Level Montreal Center
Fri 10:03:10 AM 44.9833 -75.5500 103° East 480 552 45,000  Level Montreal Center
Fri 10:04:10 AM 44.9667 -75.3833 98° East 480 552 45,000  Level Montreal Center
Fri 10:05:10 AM 44.9333 -75.1833 103° East 470 541 45,000  Level Montreal Center
Fri 10:06:10 AM 44.9000 -75.0000 104° East 480 552 45,000  Level Montreal Center
Fri 10:07:10 AM 44.8833 -74.8167 97° East 480 552 45,000  Level Montreal Center
Fri 10:08:10 AM 44.8500 -74.6500 106° East 480 552 45,000 -250 Level Montreal Center
Fri 10:09:10 AM 44.8333 -74.4500 97° East 470 541 44,500 -1,000 Descending Montreal Center
Fri 10:10:10 AM 44.8000 -74.2667 104° East 480 552 43,000 -1,450 Descending Montreal Center
Fri 10:11:10 AM 44.7667 -74.0833 104° East 480 552 41,600 -1,500 Descending Montreal Center
Fri 10:12:10 AM 44.7333 -73.9000 104° East 490 564 40,000 -1,500 Descending Montreal Center
Fri 10:13:10 AM 44.7000 -73.7000 103° East 500 575 38,600 -1,700 Descending Montreal Center
Fri 10:14:10 AM 44.6833 -73.5167 97° East 500 575 36,600 -2,050 Descending Montreal Center
Fri 10:15:10 AM 44.6667 -73.3333 97° East 500 575 34,500 -2,250 Descending Montreal Center
Fri 10:16:10 AM 44.6667 -73.1167 90° East 500 575 32,100 -2,300 Descending Montreal Center
Fri 10:17:10 AM 44.6500 -72.9333 97° East 510 587 29,900 -2,350 Descending Montreal Center
Fri 10:18:10 AM 44.6333 -72.7167 96° East 520 598 27,400 -2,900 Descending Montreal Center
Fri 10:19:10 AM 44.6333 -72.5333 90° East 500 575 24,100 -3,300 Descending Montreal Center
Fri 10:20:10 AM 44.6333 -72.3500 90° East 480 552 20,800 -3,400 Descending Montreal Center
Fri 10:21:10 AM 44.6167 -72.1667 97° East 450 518 17,300 -3,500 Descending Montreal Center
Fri 10:22:10 AM 44.6167 -72.0000 90° East 430 495 13,800 -3,400 Descending Montreal Center
Fri 10:23:10 AM 44.6000 -71.8500 99° East 390 449 10,500 -2,700 Descending Montreal Center
Fri 10:24:10 AM 44.6000 -71.7333 90° East 330 380 8,400 -1,550 Descending Montreal Center
Fri 10:25:10 AM 44.5833 -71.6167 101° East 310 357 7,400 -592 Descending Montreal Center
Fri 10:26:32 AM 44.5906 -71.4606 86° East 309 356 7,000 -803 Descending Boston Center
Fri 10:27:32 AM 44.5856 -71.3703 94° East 303 349 5,500 -1,500 Descending Boston Center

Login

Don't have an account? Register now (free) for customized features, flight alerts, and more!